Terminal Aerodrome Forecast
Issued by NWS

Home | Current Version | Previous Version | Text Only | Print | Product List | Glossary On
Versions: 1 2 3 4 5 6 7 8 9 10 11 12 13 14 15 16 17 18 19 20
000
FTUS43 KGRR 082341
TAFAZO
TAF
KAZO 082341Z 0900/0924 23010KT 2SM -SN FEW014 BKN030 OVC050
      TEMPO 0900/0904 3/4SM -SHSN OVC015
     FM090400 29008KT 3/4SM -SHSN OVC010
     FM090600 28008KT 1/2SM SHSN FG VV008
     FM091200 28008KT 2SM -SHSN BR OVC010=

USA.gov is the U.S. government's official web portal to all federal, state and local government web resources and services.